sensor_id;sensor_type;location;lat;lon;timestamp;P1;durP1;ratioP1;P2;durP2;ratioP2
23561;SDS011;11959;49.418;8.728;2022-07-11T00:02:17;3.80;;;3.50;;
23561;SDS011;11959;49.418;8.728;2022-07-11T00:04:44;4.45;;;2.92;;
23561;SDS011;11959;49.418;8.728;2022-07-11T00:07:11;5.53;;;3.35;;
23561;SDS011;11959;49.418;8.728;2022-07-11T00:09:37;4.25;;;2.97;;
23561;SDS011;11959;49.418;8.728;2022-07-11T00:12:03;5.03;;;3.45;;
23561;SDS011;11959;49.418;8.728;2022-07-11T00:14:30;4.20;;;3.20;;
23561;SDS011;11959;49.418;8.728;2022-07-11T00:16:56;3.45;;;3.15;;
23561;SDS011;11959;49.418;8.728;2022-07-11T00:19:22;4.70;;;3.22;;
23561;SDS011;11959;49.418;8.728;2022-07-11T00:21:48;3.30;;;3.00;;
23561;SDS011;11959;49.418;8.728;2022-07-11T00:24:15;3.75;;;3.10;;
23561;SDS011;11959;49.418;8.728;2022-07-11T00:26:44;4.75;;;3.30;;
23561;SDS011;11959;49.418;8.728;2022-07-11T00:29:11;3.47;;;3.17;;
23561;SDS011;11959;49.418;8.728;2022-07-11T00:31:37;4.40;;;3.05;;
23561;SDS011;11959;49.418;8.728;2022-07-11T00:34:02;4.07;;;3.38;;
23561;SDS011;11959;49.418;8.728;2022-07-11T00:36:28;4.65;;;3.20;;
23561;SDS011;11959;49.418;8.728;2022-07-11T00:38:54;3.85;;;3.05;;
23561;SDS011;11959;49.418;8.728;2022-07-11T00:41:20;4.57;;;3.17;;
23561;SDS011;11959;49.418;8.728;2022-07-11T00:43:56;4.63;;;3.22;;
23561;SDS011;11959;49.418;8.728;2022-07-11T00:46:23;4.85;;;3.05;;
23561;SDS011;11959;49.418;8.728;2022-07-11T00:48:51;5.93;;;3.00;;
23561;SDS011;11959;49.418;8.728;2022-07-11T00:51:20;5.57;;;3.47;;
23561;SDS011;11959;49.418;8.728;2022-07-11T00:53:51;3.97;;;3.33;;
23561;SDS011;11959;49.418;8.728;2022-07-11T00:56:23;3.67;;;2.92;;
23561;SDS011;11959;49.418;8.728;2022-07-11T00:58:50;4.00;;;3.13;;
23561;SDS011;11959;49.418;8.728;2022-07-11T01:01:17;3.30;;;3.00;;
23561;SDS011;11959;49.418;8.728;2022-07-11T01:03:43;4.32;;;3.22;;
23561;SDS011;11959;49.418;8.728;2022-07-11T01:06:09;4.45;;;3.08;;
23561;SDS011;11959;49.418;8.728;2022-07-11T01:08:36;4.72;;;3.70;;
23561;SDS011;11959;49.418;8.728;2022-07-11T01:11:03;3.88;;;3.58;;
23561;SDS011;11959;49.418;8.728;2022-07-11T01:13:30;6.47;;;3.42;;
23561;SDS011;11959;49.418;8.728;2022-07-11T01:16:09;4.68;;;3.40;;
23561;SDS011;11959;49.418;8.728;2022-07-11T01:18:45;3.40;;;3.10;;
23561;SDS011;11959;49.418;8.728;2022-07-11T01:21:23;5.65;;;3.80;;
23561;SDS011;11959;49.418;8.728;2022-07-11T01:23:53;7.32;;;3.50;;
23561;SDS011;11959;49.418;8.728;2022-07-11T01:26:20;4.85;;;3.53;;
23561;SDS011;11959;49.418;8.728;2022-07-11T01:28:47;7.57;;;4.25;;
23561;SDS011;11959;49.418;8.728;2022-07-11T01:31:14;6.78;;;3.67;;
23561;SDS011;11959;49.418;8.728;2022-07-11T01:33:40;4.88;;;4.28;;
23561;SDS011;11959;49.418;8.728;2022-07-11T01:36:06;6.00;;;4.15;;
23561;SDS011;11959;49.418;8.728;2022-07-11T01:38:32;6.22;;;4.65;;
23561;SDS011;11959;49.418;8.728;2022-07-11T01:40:58;5.63;;;3.97;;
23561;SDS011;11959;49.418;8.728;2022-07-11T01:43:23;4.28;;;3.67;;
23561;SDS011;11959;49.418;8.728;2022-07-11T01:45:50;6.57;;;3.95;;
23561;SDS011;11959;49.418;8.728;2022-07-11T01:48:19;4.82;;;3.75;;
23561;SDS011;11959;49.418;8.728;2022-07-11T01:50:46;6.25;;;4.68;;
23561;SDS011;11959;49.418;8.728;2022-07-11T01:53:12;6.07;;;3.63;;
23561;SDS011;11959;49.418;8.728;2022-07-11T01:55:38;6.22;;;4.32;;
23561;SDS011;11959;49.418;8.728;2022-07-11T01:58:04;5.72;;;3.55;;
23561;SDS011;11959;49.418;8.728;2022-07-11T02:00:29;4.80;;;3.80;;
23561;SDS011;11959;49.418;8.728;2022-07-11T02:02:55;5.70;;;3.88;;
23561;SDS011;11959;49.418;8.728;2022-07-11T02:05:21;4.75;;;3.65;;
23561;SDS011;11959;49.418;8.728;2022-07-11T02:07:47;7.18;;;3.50;;
23561;SDS011;11959;49.418;8.728;2022-07-11T02:10:31;5.15;;;3.30;;
23561;SDS011;11959;49.418;8.728;2022-07-11T02:12:57;4.88;;;3.25;;
23561;SDS011;11959;49.418;8.728;2022-07-11T02:15:27;7.57;;;3.33;;
23561;SDS011;11959;49.418;8.728;2022-07-11T02:17:54;5.60;;;3.05;;
23561;SDS011;11959;49.418;8.728;2022-07-11T02:20:19;3.92;;;3.20;;
23561;SDS011;11959;49.418;8.728;2022-07-11T02:22:46;6.38;;;3.10;;
23561;SDS011;11959;49.418;8.728;2022-07-11T02:25:13;5.07;;;3.58;;
23561;SDS011;11959;49.418;8.728;2022-07-11T02:27:39;5.85;;;3.33;;
23561;SDS011;11959;49.418;8.728;2022-07-11T02:30:05;3.83;;;3.30;;
23561;SDS011;11959;49.418;8.728;2022-07-11T02:32:31;3.83;;;3.40;;
23561;SDS011;11959;49.418;8.728;2022-07-11T02:34:56;5.30;;;3.10;;
23561;SDS011;11959;49.418;8.728;2022-07-11T02:37:22;6.90;;;3.58;;
23561;SDS011;11959;49.418;8.728;2022-07-11T02:39:48;5.03;;;3.42;;
23561;SDS011;11959;49.418;8.728;2022-07-11T02:42:13;4.18;;;3.20;;
23561;SDS011;11959;49.418;8.728;2022-07-11T02:44:39;4.88;;;3.33;;
23561;SDS011;11959;49.418;8.728;2022-07-11T02:47:06;4.28;;;3.25;;
23561;SDS011;11959;49.418;8.728;2022-07-11T02:49:31;5.75;;;3.33;;
23561;SDS011;11959;49.418;8.728;2022-07-11T02:51:57;3.63;;;3.28;;
23561;SDS011;11959;49.418;8.728;2022-07-11T02:54:24;5.13;;;3.28;;
23561;SDS011;11959;49.418;8.728;2022-07-11T02:56:50;3.63;;;2.95;;
23561;SDS011;11959;49.418;8.728;2022-07-11T02:59:16;3.80;;;3.15;;
23561;SDS011;11959;49.418;8.728;2022-07-11T03:01:42;3.67;;;3.25;;
23561;SDS011;11959;49.418;8.728;2022-07-11T03:04:08;4.05;;;3.40;;
23561;SDS011;11959;49.418;8.728;2022-07-11T03:06:34;6.15;;;4.03;;
23561;SDS011;11959;49.418;8.728;2022-07-11T03:09:00;4.10;;;3.35;;
23561;SDS011;11959;49.418;8.728;2022-07-11T03:11:25;6.22;;;3.38;;
23561;SDS011;11959;49.418;8.728;2022-07-11T03:13:51;3.78;;;3.25;;
23561;SDS011;11959;49.418;8.728;2022-07-11T03:16:17;4.65;;;3.40;;
23561;SDS011;11959;49.418;8.728;2022-07-11T03:18:42;4.78;;;3.50;;
23561;SDS011;11959;49.418;8.728;2022-07-11T03:21:08;4.47;;;3.60;;
23561;SDS011;11959;49.418;8.728;2022-07-11T03:23:34;4.40;;;3.20;;
23561;SDS011;11959;49.418;8.728;2022-07-11T03:26:00;3.85;;;3.25;;
23561;SDS011;11959;49.418;8.728;2022-07-11T03:28:26;5.57;;;3.75;;
23561;SDS011;11959;49.418;8.728;2022-07-11T03:30:52;4.10;;;3.40;;
23561;SDS011;11959;49.418;8.728;2022-07-11T03:33:17;4.57;;;3.28;;
23561;SDS011;11959;49.418;8.728;2022-07-11T03:35:43;5.43;;;3.90;;
23561;SDS011;11959;49.418;8.728;2022-07-11T03:38:09;3.92;;;3.38;;
23561;SDS011;11959;49.418;8.728;2022-07-11T03:40:36;4.13;;;3.38;;
23561;SDS011;11959;49.418;8.728;2022-07-11T03:43:02;4.22;;;3.63;;
23561;SDS011;11959;49.418;8.728;2022-07-11T03:45:27;3.80;;;3.40;;
23561;SDS011;11959;49.418;8.728;2022-07-11T03:47:53;6.13;;;3.38;;
23561;SDS011;11959;49.418;8.728;2022-07-11T03:50:19;3.63;;;3.33;;
23561;SDS011;11959;49.418;8.728;2022-07-11T03:52:45;3.80;;;3.45;;
23561;SDS011;11959;49.418;8.728;2022-07-11T03:55:11;4.55;;;3.30;;
23561;SDS011;11959;49.418;8.728;2022-07-11T03:57:37;5.15;;;3.83;;
23561;SDS011;11959;49.418;8.728;2022-07-11T04:00:04;4.90;;;3.33;;
23561;SDS011;11959;49.418;8.728;2022-07-11T04:02:31;3.88;;;3.47;;
23561;SDS011;11959;49.418;8.728;2022-07-11T04:04:57;5.22;;;3.58;;
23561;SDS011;11959;49.418;8.728;2022-07-11T04:07:23;4.88;;;3.42;;
23561;SDS011;11959;49.418;8.728;2022-07-11T04:09:49;4.32;;;3.47;;
23561;SDS011;11959;49.418;8.728;2022-07-11T04:12:15;4.75;;;3.38;;
23561;SDS011;11959;49.418;8.728;2022-07-11T04:14:42;4.32;;;3.35;;
23561;SDS011;11959;49.418;8.728;2022-07-11T04:17:09;4.05;;;3.67;;
23561;SDS011;11959;49.418;8.728;2022-07-11T04:19:34;4.00;;;3.15;;
23561;SDS011;11959;49.418;8.728;2022-07-11T04:22:00;4.65;;;3.78;;
23561;SDS011;11959;49.418;8.728;2022-07-11T04:24:26;4.60;;;3.10;;
23561;SDS011;11959;49.418;8.728;2022-07-11T04:26:52;5.10;;;3.50;;
23561;SDS011;11959;49.418;8.728;2022-07-11T04:29:17;5.10;;;3.55;;
23561;SDS011;11959;49.418;8.728;2022-07-11T04:31:43;3.90;;;3.60;;
23561;SDS011;11959;49.418;8.728;2022-07-11T04:34:09;4.20;;;3.45;;
23561;SDS011;11959;49.418;8.728;2022-07-11T04:36:35;6.40;;;3.53;;
23561;SDS011;11959;49.418;8.728;2022-07-11T04:39:00;5.35;;;3.90;;
23561;SDS011;11959;49.418;8.728;2022-07-11T04:41:26;3.85;;;3.55;;
23561;SDS011;11959;49.418;8.728;2022-07-11T04:43:52;4.55;;;3.42;;
23561;SDS011;11959;49.418;8.728;2022-07-11T04:46:17;5.32;;;3.63;;
23561;SDS011;11959;49.418;8.728;2022-07-11T04:48:43;4.25;;;3.70;;
23561;SDS011;11959;49.418;8.728;2022-07-11T04:51:09;4.40;;;3.63;;
23561;SDS011;11959;49.418;8.728;2022-07-11T04:53:35;4.47;;;3.65;;
23561;SDS011;11959;49.418;8.728;2022-07-11T04:56:00;5.47;;;3.60;;
23561;SDS011;11959;49.418;8.728;2022-07-11T04:58:26;5.47;;;3.97;;
23561;SDS011;11959;49.418;8.728;2022-07-11T05:00:52;4.90;;;3.35;;
23561;SDS011;11959;49.418;8.728;2022-07-11T05:03:17;5.55;;;3.92;;
23561;SDS011;11959;49.418;8.728;2022-07-11T05:05:45;4.35;;;3.58;;
23561;SDS011;11959;49.418;8.728;2022-07-11T05:08:10;5.32;;;3.60;;
23561;SDS011;11959;49.418;8.728;2022-07-11T05:10:36;3.83;;;3.40;;
23561;SDS011;11959;49.418;8.728;2022-07-11T05:13:02;4.00;;;3.70;;
23561;SDS011;11959;49.418;8.728;2022-07-11T05:15:28;5.80;;;3.90;;
23561;SDS011;11959;49.418;8.728;2022-07-11T05:17:54;4.05;;;3.67;;
23561;SDS011;11959;49.418;8.728;2022-07-11T05:20:20;3.85;;;3.45;;
23561;SDS011;11959;49.418;8.728;2022-07-11T05:22:45;4.40;;;3.72;;
23561;SDS011;11959;49.418;8.728;2022-07-11T05:25:11;4.03;;;3.58;;
23561;SDS011;11959;49.418;8.728;2022-07-11T05:27:37;5.38;;;3.78;;
23561;SDS011;11959;49.418;8.728;2022-07-11T05:30:03;4.55;;;4.13;;
23561;SDS011;11959;49.418;8.728;2022-07-11T05:32:29;3.95;;;3.35;;
23561;SDS011;11959;49.418;8.728;2022-07-11T05:34:55;4.88;;;3.80;;
23561;SDS011;11959;49.418;8.728;2022-07-11T05:37:25;4.95;;;3.70;;
23561;SDS011;11959;49.418;8.728;2022-07-11T05:39:51;5.32;;;3.90;;
23561;SDS011;11959;49.418;8.728;2022-07-11T05:42:17;7.18;;;4.32;;
23561;SDS011;11959;49.418;8.728;2022-07-11T05:44:42;4.47;;;4.05;;
23561;SDS011;11959;49.418;8.728;2022-07-11T05:47:08;3.80;;;3.45;;
23561;SDS011;11959;49.418;8.728;2022-07-11T05:49:34;4.78;;;3.83;;
23561;SDS011;11959;49.418;8.728;2022-07-11T05:51:59;5.57;;;3.80;;
23561;SDS011;11959;49.418;8.728;2022-07-11T05:54:26;4.90;;;3.85;;
23561;SDS011;11959;49.418;8.728;2022-07-11T05:56:53;4.03;;;3.33;;
23561;SDS011;11959;49.418;8.728;2022-07-11T05:59:19;5.88;;;4.20;;
23561;SDS011;11959;49.418;8.728;2022-07-11T06:01:45;4.90;;;3.50;;
23561;SDS011;11959;49.418;8.728;2022-07-11T06:04:12;3.30;;;2.97;;
23561;SDS011;11959;49.418;8.728;2022-07-11T06:06:38;6.13;;;3.63;;
23561;SDS011;11959;49.418;8.728;2022-07-11T06:09:03;6.35;;;3.75;;
23561;SDS011;11959;49.418;8.728;2022-07-11T06:11:29;4.05;;;3.65;;
23561;SDS011;11959;49.418;8.728;2022-07-11T06:13:55;4.97;;;4.15;;
23561;SDS011;11959;49.418;8.728;2022-07-11T06:16:20;5.18;;;3.70;;
23561;SDS011;11959;49.418;8.728;2022-07-11T06:18:47;4.97;;;4.10;;
23561;SDS011;11959;49.418;8.728;2022-07-11T06:21:13;4.30;;;3.40;;
23561;SDS011;11959;49.418;8.728;2022-07-11T06:23:39;5.15;;;3.72;;
23561;SDS011;11959;49.418;8.728;2022-07-11T06:26:07;7.50;;;3.72;;
23561;SDS011;11959;49.418;8.728;2022-07-11T06:28:33;4.47;;;3.65;;
23561;SDS011;11959;49.418;8.728;2022-07-11T06:30:59;4.55;;;3.60;;
23561;SDS011;11959;49.418;8.728;2022-07-11T06:33:25;7.13;;;3.67;;
23561;SDS011;11959;49.418;8.728;2022-07-11T06:35:51;4.20;;;3.55;;
23561;SDS011;11959;49.418;8.728;2022-07-11T06:38:17;4.72;;;3.60;;
23561;SDS011;11959;49.418;8.728;2022-07-11T06:40:43;6.60;;;4.20;;
23561;SDS011;11959;49.418;8.728;2022-07-11T06:43:09;4.93;;;4.15;;
23561;SDS011;11959;49.418;8.728;2022-07-11T06:45:35;5.85;;;4.05;;
23561;SDS011;11959;49.418;8.728;2022-07-11T06:48:01;4.97;;;3.88;;
23561;SDS011;11959;49.418;8.728;2022-07-11T06:50:27;5.20;;;3.85;;
23561;SDS011;11959;49.418;8.728;2022-07-11T06:52:53;3.80;;;3.40;;
23561;SDS011;11959;49.418;8.728;2022-07-11T06:55:18;3.90;;;3.03;;
23561;SDS011;11959;49.418;8.728;2022-07-11T06:57:44;6.05;;;4.47;;
23561;SDS011;11959;49.418;8.728;2022-07-11T07:00:10;6.13;;;3.92;;
23561;SDS011;11959;49.418;8.728;2022-07-11T07:02:36;4.93;;;3.70;;
23561;SDS011;11959;49.418;8.728;2022-07-11T07:05:03;5.82;;;4.13;;
23561;SDS011;11959;49.418;8.728;2022-07-11T07:07:30;5.15;;;4.20;;
23561;SDS011;11959;49.418;8.728;2022-07-11T07:09:56;3.67;;;3.35;;
23561;SDS011;11959;49.418;8.728;2022-07-11T07:12:22;6.25;;;3.60;;
23561;SDS011;11959;49.418;8.728;2022-07-11T07:14:47;6.13;;;3.22;;
23561;SDS011;11959;49.418;8.728;2022-07-11T07:17:15;4.75;;;3.38;;
23561;SDS011;11959;49.418;8.728;2022-07-11T07:19:41;4.88;;;3.47;;
23561;SDS011;11959;49.418;8.728;2022-07-11T07:22:07;5.82;;;3.17;;
23561;SDS011;11959;49.418;8.728;2022-07-11T07:24:33;5.05;;;2.95;;
23561;SDS011;11959;49.418;8.728;2022-07-11T07:27:03;3.47;;;3.08;;
23561;SDS011;11959;49.418;8.728;2022-07-11T07:29:29;5.28;;;3.92;;
23561;SDS011;11959;49.418;8.728;2022-07-11T07:31:55;4.13;;;3.15;;
23561;SDS011;11959;49.418;8.728;2022-07-11T07:34:21;6.43;;;3.92;;
23561;SDS011;11959;49.418;8.728;2022-07-11T07:36:46;3.97;;;3.40;;
23561;SDS011;11959;49.418;8.728;2022-07-11T07:39:12;8.50;;;3.78;;
23561;SDS011;11959;49.418;8.728;2022-07-11T07:41:38;5.97;;;4.57;;
23561;SDS011;11959;49.418;8.728;2022-07-11T07:44:03;6.60;;;3.70;;
23561;SDS011;11959;49.418;8.728;2022-07-11T07:46:29;6.55;;;3.80;;
23561;SDS011;11959;49.418;8.728;2022-07-11T07:48:55;7.72;;;4.70;;
23561;SDS011;11959;49.418;8.728;2022-07-11T07:51:21;5.13;;;4.10;;
23561;SDS011;11959;49.418;8.728;2022-07-11T07:53:47;8.82;;;4.78;;
23561;SDS011;11959;49.418;8.728;2022-07-11T07:56:13;5.95;;;4.38;;
23561;SDS011;11959;49.418;8.728;2022-07-11T07:58:39;9.75;;;4.30;;
23561;SDS011;11959;49.418;8.728;2022-07-11T08:01:05;6.85;;;4.15;;
23561;SDS011;11959;49.418;8.728;2022-07-11T08:03:49;4.40;;;3.72;;
23561;SDS011;11959;49.418;8.728;2022-07-11T08:06:15;8.85;;;5.07;;
23561;SDS011;11959;49.418;8.728;2022-07-11T08:08:41;7.93;;;4.20;;
23561;SDS011;11959;49.418;8.728;2022-07-11T08:11:07;6.43;;;4.40;;
23561;SDS011;11959;49.418;8.728;2022-07-11T08:13:33;6.28;;;4.07;;
23561;SDS011;11959;49.418;8.728;2022-07-11T08:15:58;8.30;;;4.25;;
23561;SDS011;11959;49.418;8.728;2022-07-11T08:18:24;7.35;;;4.97;;
23561;SDS011;11959;49.418;8.728;2022-07-11T08:20:53;5.60;;;4.30;;
23561;SDS011;11959;49.418;8.728;2022-07-11T08:23:20;4.85;;;4.00;;
23561;SDS011;11959;49.418;8.728;2022-07-11T08:25:46;5.85;;;4.00;;
23561;SDS011;11959;49.418;8.728;2022-07-11T08:28:12;6.43;;;3.88;;
23561;SDS011;11959;49.418;8.728;2022-07-11T08:30:38;6.07;;;3.75;;
23561;SDS011;11959;49.418;8.728;2022-07-11T08:33:03;7.57;;;4.10;;
23561;SDS011;11959;49.418;8.728;2022-07-11T08:35:29;5.47;;;3.50;;
23561;SDS011;11959;49.418;8.728;2022-07-11T08:37:55;4.75;;;3.53;;
23561;SDS011;11959;49.418;8.728;2022-07-11T08:40:20;5.03;;;3.25;;
23561;SDS011;11959;49.418;8.728;2022-07-11T08:42:46;5.03;;;3.60;;
23561;SDS011;11959;49.418;8.728;2022-07-11T08:45:12;5.25;;;3.08;;
23561;SDS011;11959;49.418;8.728;2022-07-11T08:47:39;5.00;;;2.67;;
23561;SDS011;11959;49.418;8.728;2022-07-11T08:50:06;3.72;;;2.80;;
23561;SDS011;11959;49.418;8.728;2022-07-11T08:52:33;5.75;;;3.20;;
23561;SDS011;11959;49.418;8.728;2022-07-11T08:54:59;5.18;;;3.30;;
23561;SDS011;11959;49.418;8.728;2022-07-11T08:57:25;5.47;;;3.25;;
23561;SDS011;11959;49.418;8.728;2022-07-11T08:59:54;6.53;;;3.20;;
23561;SDS011;11959;49.418;8.728;2022-07-11T09:02:23;4.28;;;3.25;;
23561;SDS011;11959;49.418;8.728;2022-07-11T09:04:49;6.55;;;3.85;;
23561;SDS011;11959;49.418;8.728;2022-07-11T09:07:15;7.18;;;4.65;;
23561;SDS011;11959;49.418;8.728;2022-07-11T09:09:40;6.80;;;4.60;;
23561;SDS011;11959;49.418;8.728;2022-07-11T09:12:15;7.45;;;4.07;;
23561;SDS011;11959;49.418;8.728;2022-07-11T09:14:48;4.63;;;3.35;;
23561;SDS011;11959;49.418;8.728;2022-07-11T09:19:48;4.65;;;3.20;;
23561;SDS011;11959;49.418;8.728;2022-07-11T09:22:16;5.82;;;3.35;;
23561;SDS011;11959;49.418;8.728;2022-07-11T09:25:02;4.38;;;3.50;;
23561;SDS011;11959;49.418;8.728;2022-07-11T09:28:02;7.15;;;3.20;;
23561;SDS011;11959;49.418;8.728;2022-07-11T09:30:31;2.72;;;2.53;;
23561;SDS011;11959;49.418;8.728;2022-07-11T09:33:04;3.67;;;2.33;;
23561;SDS011;11959;49.418;8.728;2022-07-11T09:35:32;4.28;;;2.35;;
23561;SDS011;11959;49.418;8.728;2022-07-11T09:38:13;2.47;;;2.25;;
23561;SDS011;11959;49.418;8.728;2022-07-11T09:40:43;4.37;;;2.50;;
23561;SDS011;11959;49.418;8.728;2022-07-11T09:43:10;4.05;;;2.58;;
23561;SDS011;11959;49.418;8.728;2022-07-11T09:45:35;4.43;;;2.70;;
23561;SDS011;11959;49.418;8.728;2022-07-11T09:48:07;3.95;;;2.45;;
23561;SDS011;11959;49.418;8.728;2022-07-11T09:50:34;4.38;;;2.92;;
23561;SDS011;11959;49.418;8.728;2022-07-11T09:55:36;3.35;;;2.53;;
23561;SDS011;11959;49.418;8.728;2022-07-11T09:58:04;4.03;;;2.70;;
23561;SDS011;11959;49.418;8.728;2022-07-11T10:00:34;4.47;;;2.50;;
23561;SDS011;11959;49.418;8.728;2022-07-11T10:03:00;5.47;;;2.65;;
23561;SDS011;11959;49.418;8.728;2022-07-11T10:05:27;3.03;;;2.45;;
23561;SDS011;11959;49.418;8.728;2022-07-11T10:07:53;7.03;;;2.72;;
23561;SDS011;11959;49.418;8.728;2022-07-11T10:10:20;5.25;;;2.53;;
23561;SDS011;11959;49.418;8.728;2022-07-11T10:12:46;4.65;;;2.50;;
23561;SDS011;11959;49.418;8.728;2022-07-11T10:15:14;3.88;;;2.75;;
23561;SDS011;11959;49.418;8.728;2022-07-11T10:17:44;3.15;;;2.38;;
23561;SDS011;11959;49.418;8.728;2022-07-11T10:28:33;4.45;;;2.10;;
23561;SDS011;11959;49.418;8.728;2022-07-11T10:31:17;3.08;;;2.10;;
23561;SDS011;11959;49.418;8.728;2022-07-11T10:36:33;3.13;;;1.95;;
23561;SDS011;11959;49.418;8.728;2022-07-11T10:39:20;3.58;;;1.77;;
23561;SDS011;11959;49.418;8.728;2022-07-11T10:41:50;2.75;;;1.77;;
23561;SDS011;11959;49.418;8.728;2022-07-11T10:44:16;2.97;;;1.80;;
23561;SDS011;11959;49.418;8.728;2022-07-11T10:46:42;2.10;;;1.63;;
23561;SDS011;11959;49.418;8.728;2022-07-11T10:54:45;2.00;;;1.42;;
23561;SDS011;11959;49.418;8.728;2022-07-11T10:57:41;4.90;;;1.50;;
23561;SDS011;11959;49.418;8.728;2022-07-11T11:00:14;4.25;;;1.70;;
23561;SDS011;11959;49.418;8.728;2022-07-11T11:03:04;2.55;;;1.60;;
23561;SDS011;11959;49.418;8.728;2022-07-11T11:10:57;2.17;;;1.60;;
23561;SDS011;11959;49.418;8.728;2022-07-11T11:13:25;2.28;;;1.70;;
23561;SDS011;11959;49.418;8.728;2022-07-11T11:15:51;3.47;;;1.55;;
23561;SDS011;11959;49.418;8.728;2022-07-11T11:23:29;3.08;;;1.85;;
23561;SDS011;11959;49.418;8.728;2022-07-11T11:28:33;2.97;;;1.80;;
23561;SDS011;11959;49.418;8.728;2022-07-11T11:31:00;2.88;;;1.80;;
23561;SDS011;11959;49.418;8.728;2022-07-11T11:33:34;2.35;;;1.90;;
23561;SDS011;11959;49.418;8.728;2022-07-11T11:38:33;3.13;;;1.63;;
23561;SDS011;11959;49.418;8.728;2022-07-11T11:41:03;2.25;;;1.52;;
23561;SDS011;11959;49.418;8.728;2022-07-11T11:43:30;3.80;;;1.95;;
23561;SDS011;11959;49.418;8.728;2022-07-11T11:45:56;3.03;;;1.60;;
23561;SDS011;11959;49.418;8.728;2022-07-11T11:48:40;4.22;;;2.00;;
23561;SDS011;11959;49.418;8.728;2022-07-11T11:51:11;2.80;;;1.90;;
23561;SDS011;11959;49.418;8.728;2022-07-11T11:53:42;4.18;;;1.90;;
23561;SDS011;11959;49.418;8.728;2022-07-11T11:56:23;2.78;;;1.75;;
23561;SDS011;11959;49.418;8.728;2022-07-11T11:58:54;2.80;;;1.90;;
23561;SDS011;11959;49.418;8.728;2022-07-11T12:01:29;3.08;;;1.98;;
23561;SDS011;11959;49.418;8.728;2022-07-11T12:04:09;2.17;;;1.80;;
23561;SDS011;11959;49.418;8.728;2022-07-11T12:06:40;2.03;;;1.50;;
23561;SDS011;11959;49.418;8.728;2022-07-11T12:09:08;5.85;;;2.08;;
23561;SDS011;11959;49.418;8.728;2022-07-11T12:11:45;3.53;;;2.10;;
23561;SDS011;11959;49.418;8.728;2022-07-11T12:14:12;3.88;;;1.80;;
23561;SDS011;11959;49.418;8.728;2022-07-11T12:16:41;3.28;;;1.67;;
23561;SDS011;11959;49.418;8.728;2022-07-11T12:19:15;3.10;;;1.80;;
23561;SDS011;11959;49.418;8.728;2022-07-11T12:21:47;6.75;;;2.10;;
23561;SDS011;11959;49.418;8.728;2022-07-11T12:24:18;3.47;;;1.70;;
23561;SDS011;11959;49.418;8.728;2022-07-11T12:26:46;2.22;;;1.83;;
23561;SDS011;11959;49.418;8.728;2022-07-11T12:34:17;2.88;;;1.55;;
23561;SDS011;11959;49.418;8.728;2022-07-11T12:36:44;2.67;;;2.10;;
23561;SDS011;11959;49.418;8.728;2022-07-11T12:39:26;2.70;;;1.55;;
23561;SDS011;11959;49.418;8.728;2022-07-11T12:41:55;2.35;;;1.75;;
23561;SDS011;11959;49.418;8.728;2022-07-11T12:44:23;3.17;;;2.05;;
23561;SDS011;11959;49.418;8.728;2022-07-11T12:47:12;2.17;;;1.85;;
23561;SDS011;11959;49.418;8.728;2022-07-11T12:49:39;2.50;;;1.80;;
23561;SDS011;11959;49.418;8.728;2022-07-11T12:52:10;2.65;;;2.00;;
23561;SDS011;11959;49.418;8.728;2022-07-11T12:54:40;1.80;;;1.70;;
23561;SDS011;11959;49.418;8.728;2022-07-11T12:57:07;2.72;;;2.10;;
23561;SDS011;11959;49.418;8.728;2022-07-11T12:59:33;2.85;;;1.65;;
23561;SDS011;11959;49.418;8.728;2022-07-11T13:10:14;2.00;;;1.83;;
23561;SDS011;11959;49.418;8.728;2022-07-11T13:12:45;2.83;;;1.98;;
23561;SDS011;11959;49.418;8.728;2022-07-11T13:15:12;2.03;;;1.80;;
23561;SDS011;11959;49.418;8.728;2022-07-11T13:17:41;3.10;;;1.90;;
23561;SDS011;11959;49.418;8.728;2022-07-11T13:20:15;3.03;;;2.00;;
23561;SDS011;11959;49.418;8.728;2022-07-11T13:22:47;3.78;;;1.80;;
23561;SDS011;11959;49.418;8.728;2022-07-11T13:25:15;3.97;;;1.98;;
23561;SDS011;11959;49.418;8.728;2022-07-11T13:27:42;2.60;;;2.00;;
23561;SDS011;11959;49.418;8.728;2022-07-11T13:30:13;3.70;;;2.00;;
23561;SDS011;11959;49.418;8.728;2022-07-11T13:32:45;3.00;;;1.95;;
23561;SDS011;11959;49.418;8.728;2022-07-11T13:35:15;2.70;;;2.00;;
23561;SDS011;11959;49.418;8.728;2022-07-11T13:37:42;2.67;;;1.95;;
23561;SDS011;11959;49.418;8.728;2022-07-11T13:40:09;3.20;;;1.75;;
23561;SDS011;11959;49.418;8.728;2022-07-11T13:42:40;2.50;;;1.70;;
23561;SDS011;11959;49.418;8.728;2022-07-11T13:45:07;2.95;;;2.20;;
23561;SDS011;11959;49.418;8.728;2022-07-11T13:47:33;2.72;;;2.17;;
23561;SDS011;11959;49.418;8.728;2022-07-11T13:50:00;2.30;;;1.92;;
23561;SDS011;11959;49.418;8.728;2022-07-11T13:52:26;3.47;;;2.30;;
23561;SDS011;11959;49.418;8.728;2022-07-11T13:54:52;2.50;;;2.10;;
23561;SDS011;11959;49.418;8.728;2022-07-11T13:57:18;2.47;;;1.83;;
23561;SDS011;11959;49.418;8.728;2022-07-11T13:59:47;3.05;;;2.00;;
23561;SDS011;11959;49.418;8.728;2022-07-11T14:02:13;3.17;;;2.00;;
23561;SDS011;11959;49.418;8.728;2022-07-11T14:04:39;2.45;;;2.00;;
23561;SDS011;11959;49.418;8.728;2022-07-11T14:07:06;3.33;;;2.10;;
23561;SDS011;11959;49.418;8.728;2022-07-11T14:09:32;2.45;;;1.77;;
23561;SDS011;11959;49.418;8.728;2022-07-11T14:11:58;4.00;;;1.98;;
23561;SDS011;11959;49.418;8.728;2022-07-11T14:14:25;2.45;;;1.80;;
23561;SDS011;11959;49.418;8.728;2022-07-11T14:16:51;3.08;;;1.90;;
23561;SDS011;11959;49.418;8.728;2022-07-11T14:19:16;2.78;;;1.80;;
23561;SDS011;11959;49.418;8.728;2022-07-11T14:21:42;3.45;;;2.08;;
23561;SDS011;11959;49.418;8.728;2022-07-11T14:24:08;2.28;;;2.08;;
23561;SDS011;11959;49.418;8.728;2022-07-11T14:26:34;3.35;;;2.20;;
23561;SDS011;11959;49.418;8.728;2022-07-11T14:29:00;2.30;;;2.00;;
23561;SDS011;11959;49.418;8.728;2022-07-11T14:31:27;2.65;;;2.15;;
23561;SDS011;11959;49.418;8.728;2022-07-11T14:33:53;2.70;;;1.95;;
23561;SDS011;11959;49.418;8.728;2022-07-11T14:36:20;1.92;;;1.60;;
23561;SDS011;11959;49.418;8.728;2022-07-11T14:38:46;2.17;;;1.90;;
23561;SDS011;11959;49.418;8.728;2022-07-11T14:41:12;2.13;;;1.48;;
23561;SDS011;11959;49.418;8.728;2022-07-11T14:43:38;2.35;;;1.90;;
23561;SDS011;11959;49.418;8.728;2022-07-11T14:46:05;2.92;;;1.73;;
23561;SDS011;11959;49.418;8.728;2022-07-11T14:48:31;2.55;;;1.80;;
23561;SDS011;11959;49.418;8.728;2022-07-11T14:50:57;1.88;;;1.73;;
23561;SDS011;11959;49.418;8.728;2022-07-11T14:53:23;2.13;;;1.70;;
23561;SDS011;11959;49.418;8.728;2022-07-11T14:55:50;2.75;;;2.10;;
23561;SDS011;11959;49.418;8.728;2022-07-11T14:58:16;3.15;;;2.10;;
23561;SDS011;11959;49.418;8.728;2022-07-11T15:00:42;2.08;;;1.85;;
23561;SDS011;11959;49.418;8.728;2022-07-11T15:03:11;4.13;;;1.70;;
23561;SDS011;11959;49.418;8.728;2022-07-11T15:05:55;2.80;;;1.90;;
23561;SDS011;11959;49.418;8.728;2022-07-11T15:08:22;3.67;;;1.80;;
23561;SDS011;11959;49.418;8.728;2022-07-11T15:11:06;2.78;;;1.73;;
23561;SDS011;11959;49.418;8.728;2022-07-11T15:14:07;2.45;;;1.90;;
23561;SDS011;11959;49.418;8.728;2022-07-11T15:16:34;2.03;;;1.63;;
23561;SDS011;11959;49.418;8.728;2022-07-11T15:19:01;2.53;;;1.65;;
23561;SDS011;11959;49.418;8.728;2022-07-11T15:21:28;3.28;;;1.80;;
23561;SDS011;11959;49.418;8.728;2022-07-11T15:23:54;1.95;;;1.48;;
23561;SDS011;11959;49.418;8.728;2022-07-11T15:26:20;2.50;;;1.30;;
23561;SDS011;11959;49.418;8.728;2022-07-11T15:28:46;3.25;;;1.65;;
23561;SDS011;11959;49.418;8.728;2022-07-11T15:31:12;2.10;;;1.40;;
23561;SDS011;11959;49.418;8.728;2022-07-11T15:33:39;2.28;;;1.70;;
23561;SDS011;11959;49.418;8.728;2022-07-11T15:36:09;1.40;;;1.30;;
23561;SDS011;11959;49.418;8.728;2022-07-11T15:38:35;1.63;;;1.40;;
23561;SDS011;11959;49.418;8.728;2022-07-11T15:41:00;1.75;;;1.30;;
23561;SDS011;11959;49.418;8.728;2022-07-11T15:43:28;2.83;;;1.50;;